CDT,Max TemperatureF,Mean TemperatureF,Min TemperatureF,Max Dew PointF,MeanDew PointF,Min DewpointF,Max Humidity, Mean Humidity, Min Humidity, Max Sea Level PressureIn, Mean Sea Level PressureIn, Min Sea Level PressureIn, Max VisibilityMiles, Mean VisibilityMiles, Min VisibilityMiles, Max Wind SpeedMPH, Mean Wind SpeedMPH, Max Gust SpeedMPH,PrecipitationIn, CloudCover, Events, WindDirDegrees
2013-9-1,93,81,71,74,71,66,97,82,52,29.95,29.89,29.82,9,6,0,14,4,38,1.57,4,Fog-Rain-Thunderstorm,304
2013-9-2,91,82,72,77,72,69,91,81,55,29.95,29.90,29.86,10,8,0,30,4,40,0.56,2,Rain-Thunderstorm,226
2013-9-3,91,80,71,76,71,68,96,87,57,30.00,29.93,29.88,10,6,0,25,3,31,2.55,5,Fog-Rain-Thunderstorm,172
2013-9-4,91,80,69,76,70,66,94,82,53,30.07,30.00,29.94,10,6,1,10,1,,0.00,5,,262
2013-9-5,98,82,71,75,71,67,97,78,41,30.09,30.04,29.99,10,8,4,13,3,,0.13,4,Rain-Thunderstorm,330
2013-9-6,91,82,73,73,68,65,91,69,42,30.06,30.01,29.95,10,9,5,6,2,,0.00,2,,346
2013-9-7,91,80,69,71,68,64,90,69,45,30.06,29.98,29.94,10,9,6,12,3,,0.00,2,Rain-Thunderstorm,165
2013-9-8,91,80,69,73,68,66,94,76,44,30.01,29.95,29.90,10,6,2,7,1,,0.00,0,Rain,230
2013-9-9,93,80,70,72,68,65,90,70,43,30.02,29.98,29.93,10,8,5,12,2,,0.00,2,,171
2013-9-10,91,82,72,72,69,64,87,69,42,30.10,30.05,30.00,10,9,6,13,4,18,0.00,3,Rain,73
2013-9-11,91,81,72,69,67,64,84,68,42,30.11,30.05,30.01,10,10,9,10,5,17,0.00,1,,55
2013-9-12,93,81,71,71,68,66,87,69,43,30.02,29.95,29.88,10,10,7,8,4,,0.00,2,,40
2013-9-13,93,80,70,72,68,64,90,69,39,29.89,29.84,29.77,10,8,6,8,3,,0.00,3,,315
2013-9-14,87,78,72,70,65,61,85,66,49,29.97,29.89,29.82,10,10,7,7,4,,0.00,4,,8
2013-9-15,93,78,66,71,66,59,87,64,45,30.03,29.99,29.96,10,10,5,9,4,,0.00,2,,80
2013-9-16,93,80,69,73,70,66,94,79,45,30.06,30.02,29.96,10,6,0,14,3,26,0.37,4,Rain-Thunderstorm,341
2013-9-17,91,81,72,78,71,68,96,81,52,30.06,30.01,29.95,10,7,2,15,5,22,0.40,5,Rain-Thunderstorm,70
2013-9-18,86,78,72,72,70,68,96,78,61,30.09,30.03,29.99,10,8,5,12,7,18,0.04,5,Rain,68
2013-9-19,89,79,69,71,67,65,87,71,46,30.06,30.01,29.97,10,10,7,13,6,,0.00,2,,100
2013-9-20,91,80,70,73,70,64,87,75,55,29.99,29.92,29.83,10,10,5,15,5,,0.00,4,Rain,132
2013-9-21,81,77,73,76,73,72,96,91,78,29.84,29.79,29.70,10,6,0,17,5,22,1.58,6,Fog-Rain-Thunderstorm,170
2013-9-22,77,72,69,72,69,67,97,89,76,29.77,29.75,29.71,10,9,2,8,5,,0.08,8,Rain,22
2013-9-23,90,80,71,73,71,68,93,81,53,29.89,29.82,29.76,10,9,2,7,4,,0.02,7,Rain,66
2013-9-24,84,76,71,74,71,68,94,86,74,29.91,29.84,29.75,10,9,2,16,6,23,0.53,8,Rain-Thunderstorm,103
2013-9-25,88,78,69,73,70,65,94,81,53,29.82,29.76,29.71,10,10,6,9,2,,0.00,5,Rain,337
2013-9-26,87,76,66,71,67,63,90,77,51,29.93,29.86,29.77,10,9,4,7,3,,0.00,1,,31
2013-9-27,84,74,64,63,61,58,90,69,46,30.02,29.97,29.92,10,10,6,10,4,16,0.00,1,,59
2013-9-28,84,72,61,62,59,55,84,67,45,30.07,30.02,29.99,10,10,10,12,4,17,0.00,0,,59
2013-9-29,84,72,61,66,61,55,84,70,46,30.03,29.98,29.93,10,10,10,9,5,,0.00,2,,46
2013-9-30,84,74,66,68,64,61,90,74,53,30.02,29.95,29.90,10,10,10,9,3,,0.00,5,Rain,59